sensor_id;sensor_type;location;lat;lon;timestamp;temperature;humidity
76104;HTU21D;64831;44.870;37.336;2023-04-24T13:18:30;13.40;82.58
76104;HTU21D;64831;44.870;37.336;2023-04-24T13:20:57;13.15;83.13
76104;HTU21D;64831;44.870;37.336;2023-04-24T13:23:23;13.00;83.98
76104;HTU21D;64831;44.870;37.336;2023-04-24T13:25:48;12.94;84.25
76104;HTU21D;64831;44.870;37.336;2023-04-24T13:28:14;12.86;84.45
76104;HTU21D;64831;44.870;37.336;2023-04-24T13:30:40;12.75;84.79
76104;HTU21D;64831;44.870;37.336;2023-04-24T13:33:06;12.62;85.48
76104;HTU21D;64831;44.870;37.336;2023-04-24T13:35:32;12.52;86.05
76104;HTU21D;64831;44.870;37.336;2023-04-24T13:37:58;12.49;86.12
76104;HTU21D;64831;44.870;37.336;2023-04-24T13:40:24;12.44;86.32
76104;HTU21D;64831;44.870;37.336;2023-04-24T13:42:50;12.41;86.36
76104;HTU21D;64831;44.870;37.336;2023-04-24T13:45:16;12.37;86.90
76104;HTU21D;64831;44.870;37.336;2023-04-24T13:47:42;12.29;87.57
76104;HTU21D;64831;44.870;37.336;2023-04-24T13:50:09;12.27;87.66
76104;HTU21D;64831;44.870;37.336;2023-04-24T13:52:35;12.20;87.98
76104;HTU21D;64831;44.870;37.336;2023-04-24T13:55:01;12.18;87.84
76104;HTU21D;64831;44.870;37.336;2023-04-24T13:57:27;12.13;88.22
76104;HTU21D;64831;44.870;37.336;2023-04-24T13:59:54;12.14;88.22
76104;HTU21D;64831;44.870;37.336;2023-04-24T14:02:21;12.08;88.24
76104;HTU21D;64831;44.870;37.336;2023-04-24T14:04:47;12.00;88.80
76104;HTU21D;64831;44.870;37.336;2023-04-24T14:07:13;11.98;89.02
76104;HTU21D;64831;44.870;37.336;2023-04-24T14:09:40;11.99;89.15
76104;HTU21D;64831;44.870;37.336;2023-04-24T14:12:06;12.00;89.18
76104;HTU21D;64831;44.870;37.336;2023-04-24T14:14:32;12.04;89.10
76104;HTU21D;64831;44.870;37.336;2023-04-24T14:16:58;12.04;89.06
76104;HTU21D;64831;44.870;37.336;2023-04-24T14:19:24;12.01;89.16
76104;HTU21D;64831;44.870;37.336;2023-04-24T14:21:50;12.04;89.05
76104;HTU21D;64831;44.870;37.336;2023-04-24T14:24:16;12.03;89.03
76104;HTU21D;64831;44.870;37.336;2023-04-24T14:26:42;12.05;89.04
76104;HTU21D;64831;44.870;37.336;2023-04-24T14:29:07;12.05;88.99
76104;HTU21D;64831;44.870;37.336;2023-04-24T14:31:33;12.07;89.03
76104;HTU21D;64831;44.870;37.336;2023-04-24T14:33:59;12.07;89.02
76104;HTU21D;64831;44.870;37.336;2023-04-24T14:36:25;12.07;89.05
76104;HTU21D;64831;44.870;37.336;2023-04-24T14:38:51;12.07;89.10
76104;HTU21D;64831;44.870;37.336;2023-04-24T14:41:17;12.10;89.03
76104;HTU21D;64831;44.870;37.336;2023-04-24T14:43:43;12.11;88.81
76104;HTU21D;64831;44.870;37.336;2023-04-24T14:46:09;12.10;88.74
76104;HTU21D;64831;44.870;37.336;2023-04-24T14:48:35;12.06;88.80
76104;HTU21D;64831;44.870;37.336;2023-04-24T14:51:01;12.04;88.64
76104;HTU21D;64831;44.870;37.336;2023-04-24T14:53:27;12.04;88.59
76104;HTU21D;64831;44.870;37.336;2023-04-24T14:55:53;12.03;88.89
76104;HTU21D;64831;44.870;37.336;2023-04-24T14:58:19;12.02;89.06
76104;HTU21D;64831;44.870;37.336;2023-04-24T15:00:45;12.00;88.95
76104;HTU21D;64831;44.870;37.336;2023-04-24T15:03:11;11.98;89.17
76104;HTU21D;64831;44.870;37.336;2023-04-24T15:05:37;11.94;89.44
76104;HTU21D;64831;44.870;37.336;2023-04-24T15:08:03;11.94;89.34
76104;HTU21D;64831;44.870;37.336;2023-04-24T15:10:29;11.93;89.33
76104;HTU21D;64831;44.870;37.336;2023-04-24T15:12:55;11.93;89.37
76104;HTU21D;64831;44.870;37.336;2023-04-24T15:15:21;11.94;89.13
76104;HTU21D;64831;44.870;37.336;2023-04-24T15:17:47;11.93;89.24
76104;HTU21D;64831;44.870;37.336;2023-04-24T15:20:13;11.93;89.06
76104;HTU21D;64831;44.870;37.336;2023-04-24T15:22:39;11.94;89.09
76104;HTU21D;64831;44.870;37.336;2023-04-24T15:25:05;11.90;89.33
76104;HTU21D;64831;44.870;37.336;2023-04-24T15:27:52;11.87;89.46
76104;HTU21D;64831;44.870;37.336;2023-04-24T15:30:18;11.86;89.58
76104;HTU21D;64831;44.870;37.336;2023-04-24T15:32:44;11.85;89.70
76104;HTU21D;64831;44.870;37.336;2023-04-24T15:35:10;11.84;89.94
76104;HTU21D;64831;44.870;37.336;2023-04-24T15:37:37;11.84;90.09
76104;HTU21D;64831;44.870;37.336;2023-04-24T15:40:04;11.83;90.25
76104;HTU21D;64831;44.870;37.336;2023-04-24T15:42:32;11.81;90.48
76104;HTU21D;64831;44.870;37.336;2023-04-24T15:44:58;11.83;90.47
76104;HTU21D;64831;44.870;37.336;2023-04-24T15:47:24;11.79;90.72
76104;HTU21D;64831;44.870;37.336;2023-04-24T15:49:51;11.82;90.71
76104;HTU21D;64831;44.870;37.336;2023-04-24T15:52:18;11.79;90.79
76104;HTU21D;64831;44.870;37.336;2023-04-24T15:54:44;11.83;90.72
76104;HTU21D;64831;44.870;37.336;2023-04-24T15:57:10;11.85;90.46
76104;HTU21D;64831;44.870;37.336;2023-04-24T15:59:38;11.88;90.18
76104;HTU21D;64831;44.870;37.336;2023-04-24T16:02:04;11.90;89.85
76104;HTU21D;64831;44.870;37.336;2023-04-24T16:04:31;11.89;89.82
76104;HTU21D;64831;44.870;37.336;2023-04-24T16:06:59;11.88;89.75
76104;HTU21D;64831;44.870;37.336;2023-04-24T16:09:25;11.89;89.63
76104;HTU21D;64831;44.870;37.336;2023-04-24T16:11:51;11.88;89.53
76104;HTU21D;64831;44.870;37.336;2023-04-24T16:14:17;11.89;89.36
76104;HTU21D;64831;44.870;37.336;2023-04-24T16:16:43;11.88;89.49
76104;HTU21D;64831;44.870;37.336;2023-04-24T16:19:09;11.88;89.31
76104;HTU21D;64831;44.870;37.336;2023-04-24T16:21:35;11.90;89.00
76104;HTU21D;64831;44.870;37.336;2023-04-24T16:24:01;11.93;88.67
76104;HTU21D;64831;44.870;37.336;2023-04-24T16:26:27;11.94;88.41
76104;HTU21D;64831;44.870;37.336;2023-04-24T16:28:53;11.97;88.17
76104;HTU21D;64831;44.870;37.336;2023-04-24T16:31:20;11.99;88.02
76104;HTU21D;64831;44.870;37.336;2023-04-24T16:33:46;12.01;87.84
76104;HTU21D;64831;44.870;37.336;2023-04-24T16:36:12;12.01;87.70
76104;HTU21D;64831;44.870;37.336;2023-04-24T16:38:38;12.00;87.71
76104;HTU21D;64831;44.870;37.336;2023-04-24T16:41:04;12.02;87.59
76104;HTU21D;64831;44.870;37.336;2023-04-24T16:43:30;12.01;87.57
76104;HTU21D;64831;44.870;37.336;2023-04-24T16:45:56;12.01;87.72
76104;HTU21D;64831;44.870;37.336;2023-04-24T16:48:22;12.02;87.66
76104;HTU21D;64831;44.870;37.336;2023-04-24T16:50:48;12.04;87.65
76104;HTU21D;64831;44.870;37.336;2023-04-24T16:53:14;12.03;88.02
76104;HTU21D;64831;44.870;37.336;2023-04-24T16:55:40;12.05;88.11
76104;HTU21D;64831;44.870;37.336;2023-04-24T16:58:06;12.05;88.21
76104;HTU21D;64831;44.870;37.336;2023-04-24T17:00:31;12.06;88.08
76104;HTU21D;64831;44.870;37.336;2023-04-24T17:02:57;12.07;88.55
76104;HTU21D;64831;44.870;37.336;2023-04-24T17:05:23;12.08;88.90
76104;HTU21D;64831;44.870;37.336;2023-04-24T17:07:49;12.06;89.09
76104;HTU21D;64831;44.870;37.336;2023-04-24T17:10:15;12.07;88.94
76104;HTU21D;64831;44.870;37.336;2023-04-24T17:12:42;12.11;88.53
76104;HTU21D;64831;44.870;37.336;2023-04-24T17:15:08;12.14;88.28
76104;HTU21D;64831;44.870;37.336;2023-04-24T17:17:34;12.14;88.12
76104;HTU21D;64831;44.870;37.336;2023-04-24T17:20:00;12.16;87.99
76104;HTU21D;64831;44.870;37.336;2023-04-24T17:22:26;12.18;87.85
76104;HTU21D;64831;44.870;37.336;2023-04-24T17:24:54;12.21;87.72
76104;HTU21D;64831;44.870;37.336;2023-04-24T17:27:20;12.21;87.64
76104;HTU21D;64831;44.870;37.336;2023-04-24T17:29:46;12.21;87.73
76104;HTU21D;64831;44.870;37.336;2023-04-24T17:32:14;12.20;87.65
76104;HTU21D;64831;44.870;37.336;2023-04-24T17:34:40;12.19;87.67
76104;HTU21D;64831;44.870;37.336;2023-04-24T17:37:06;12.18;87.89
76104;HTU21D;64831;44.870;37.336;2023-04-24T17:39:32;12.13;88.36
76104;HTU21D;64831;44.870;37.336;2023-04-24T17:41:57;12.12;88.37
76104;HTU21D;64831;44.870;37.336;2023-04-24T17:44:23;12.10;88.48
76104;HTU21D;64831;44.870;37.336;2023-04-24T17:46:49;12.04;89.11
76104;HTU21D;64831;44.870;37.336;2023-04-24T17:49:15;12.01;89.58
76104;HTU21D;64831;44.870;37.336;2023-04-24T17:51:41;11.96;90.11
76104;HTU21D;64831;44.870;37.336;2023-04-24T17:54:08;11.93;90.27
76104;HTU21D;64831;44.870;37.336;2023-04-24T17:56:35;11.92;90.10
76104;HTU21D;64831;44.870;37.336;2023-04-24T17:59:01;11.91;89.94
76104;HTU21D;64831;44.870;37.336;2023-04-24T18:01:27;11.89;89.79
76104;HTU21D;64831;44.870;37.336;2023-04-24T18:03:55;11.87;89.63
76104;HTU21D;64831;44.870;37.336;2023-04-24T18:06:21;11.86;89.49
76104;HTU21D;64831;44.870;37.336;2023-04-24T18:08:47;11.82;89.34
76104;HTU21D;64831;44.870;37.336;2023-04-24T18:11:13;11.82;89.18
76104;HTU21D;64831;44.870;37.336;2023-04-24T18:13:40;11.83;89.02
76104;HTU21D;64831;44.870;37.336;2023-04-24T18:16:06;11.82;88.86
76104;HTU21D;64831;44.870;37.336;2023-04-24T18:18:32;11.83;88.91
76104;HTU21D;64831;44.870;37.336;2023-04-24T18:20:58;11.83;88.99
76104;HTU21D;64831;44.870;37.336;2023-04-24T18:23:24;11.82;88.76
76104;HTU21D;64831;44.870;37.336;2023-04-24T18:25:50;11.83;88.50
76104;HTU21D;64831;44.870;37.336;2023-04-24T18:28:18;11.79;88.40
76104;HTU21D;64831;44.870;37.336;2023-04-24T18:30:48;11.75;88.58
76104;HTU21D;64831;44.870;37.336;2023-04-24T18:33:14;11.68;88.85
76104;HTU21D;64831;44.870;37.336;2023-04-24T18:35:40;11.61;88.89
76104;HTU21D;64831;44.870;37.336;2023-04-24T18:38:06;11.58;88.90
76104;HTU21D;64831;44.870;37.336;2023-04-24T18:40:32;11.55;88.79
76104;HTU21D;64831;44.870;37.336;2023-04-24T18:42:58;11.51;88.89
76104;HTU21D;64831;44.870;37.336;2023-04-24T18:45:24;11.51;88.78
76104;HTU21D;64831;44.870;37.336;2023-04-24T18:47:50;11.51;88.68
76104;HTU21D;64831;44.870;37.336;2023-04-24T18:50:16;11.51;88.50
76104;HTU21D;64831;44.870;37.336;2023-04-24T18:52:44;11.49;88.40
76104;HTU21D;64831;44.870;37.336;2023-04-24T18:55:10;11.49;88.24
76104;HTU21D;64831;44.870;37.336;2023-04-24T18:57:36;11.47;88.04
76104;HTU21D;64831;44.870;37.336;2023-04-24T19:00:02;11.38;87.92
76104;HTU21D;64831;44.870;37.336;2023-04-24T19:02:31;11.36;87.79
76104;HTU21D;64831;44.870;37.336;2023-04-24T19:04:57;11.30;87.75
76104;HTU21D;64831;44.870;37.336;2023-04-24T19:07:23;11.28;87.70
76104;HTU21D;64831;44.870;37.336;2023-04-24T19:09:48;11.25;87.70
76104;HTU21D;64831;44.870;37.336;2023-04-24T19:12:14;11.20;87.66
76104;HTU21D;64831;44.870;37.336;2023-04-24T19:14:41;11.20;87.58
76104;HTU21D;64831;44.870;37.336;2023-04-24T19:17:06;11.17;87.64
76104;HTU21D;64831;44.870;37.336;2023-04-24T19:19:34;11.17;87.50
76104;HTU21D;64831;44.870;37.336;2023-04-24T19:22:01;11.17;87.47
76104;HTU21D;64831;44.870;37.336;2023-04-24T19:24:27;11.16;87.51
76104;HTU21D;64831;44.870;37.336;2023-04-24T19:26:58;11.16;87.34
76104;HTU21D;64831;44.870;37.336;2023-04-24T19:29:23;11.15;87.32
76104;HTU21D;64831;44.870;37.336;2023-04-24T19:31:50;11.15;87.32
76104;HTU21D;64831;44.870;37.336;2023-04-24T19:34:17;11.14;87.51
76104;HTU21D;64831;44.870;37.336;2023-04-24T19:36:43;11.14;87.63
76104;HTU21D;64831;44.870;37.336;2023-04-24T19:39:09;11.15;87.61
76104;HTU21D;64831;44.870;37.336;2023-04-24T19:41:34;11.17;87.55
76104;HTU21D;64831;44.870;37.336;2023-04-24T19:44:01;11.15;87.72
76104;HTU21D;64831;44.870;37.336;2023-04-24T19:46:27;11.14;87.69
76104;HTU21D;64831;44.870;37.336;2023-04-24T19:48:53;11.09;87.78
76104;HTU21D;64831;44.870;37.336;2023-04-24T19:51:19;11.07;87.73
76104;HTU21D;64831;44.870;37.336;2023-04-24T19:53:45;11.08;87.65
76104;HTU21D;64831;44.870;37.336;2023-04-24T19:56:11;11.03;87.59
76104;HTU21D;64831;44.870;37.336;2023-04-24T19:58:37;11.02;87.55
76104;HTU21D;64831;44.870;37.336;2023-04-24T20:01:03;11.01;87.47
76104;HTU21D;64831;44.870;37.336;2023-04-24T20:03:30;11.00;87.55
76104;HTU21D;64831;44.870;37.336;2023-04-24T20:05:56;10.98;87.41
76104;HTU21D;64831;44.870;37.336;2023-04-24T20:08:22;10.95;86.98
76104;HTU21D;64831;44.870;37.336;2023-04-24T20:10:48;10.90;86.55
76104;HTU21D;64831;44.870;37.336;2023-04-24T20:13:14;10.92;86.13
76104;HTU21D;64831;44.870;37.336;2023-04-24T20:15:40;10.87;85.48
76104;HTU21D;64831;44.870;37.336;2023-04-24T20:18:06;10.84;84.88
76104;HTU21D;64831;44.870;37.336;2023-04-24T20:20:32;10.82;84.83
76104;HTU21D;64831;44.870;37.336;2023-04-24T20:22:59;10.82;84.71
76104;HTU21D;64831;44.870;37.336;2023-04-24T20:25:25;10.82;85.09
76104;HTU21D;64831;44.870;37.336;2023-04-24T20:27:51;10.85;85.44
76104;HTU21D;64831;44.870;37.336;2023-04-24T20:30:17;10.90;85.51
76104;HTU21D;64831;44.870;37.336;2023-04-24T20:32:43;10.94;85.62
76104;HTU21D;64831;44.870;37.336;2023-04-24T20:35:09;10.97;85.67
76104;HTU21D;64831;44.870;37.336;2023-04-24T20:37:36;10.98;86.22
76104;HTU21D;64831;44.870;37.336;2023-04-24T20:40:03;11.01;86.22
76104;HTU21D;64831;44.870;37.336;2023-04-24T20:42:32;11.07;86.23
76104;HTU21D;64831;44.870;37.336;2023-04-24T20:45:01;11.04;86.83
76104;HTU21D;64831;44.870;37.336;2023-04-24T20:47:28;11.08;87.13
76104;HTU21D;64831;44.870;37.336;2023-04-24T20:49:54;11.11;87.60
76104;HTU21D;64831;44.870;37.336;2023-04-24T20:52:20;11.10;87.67
76104;HTU21D;64831;44.870;37.336;2023-04-24T20:54:45;11.14;87.40
76104;HTU21D;64831;44.870;37.336;2023-04-24T20:57:13;11.17;87.29
76104;HTU21D;64831;44.870;37.336;2023-04-24T20:59:39;11.19;87.48
76104;HTU21D;64831;44.870;37.336;2023-04-24T21:02:06;11.22;87.42
76104;HTU21D;64831;44.870;37.336;2023-04-24T21:04:32;11.23;87.39
76104;HTU21D;64831;44.870;37.336;2023-04-24T21:07:01;11.24;87.73
76104;HTU21D;64831;44.870;37.336;2023-04-24T21:09:27;11.22;87.84
76104;HTU21D;64831;44.870;37.336;2023-04-24T21:11:53;11.20;87.98
76104;HTU21D;64831;44.870;37.336;2023-04-24T21:14:19;11.22;87.98
76104;HTU21D;64831;44.870;37.336;2023-04-24T21:16:45;11.25;87.91
76104;HTU21D;64831;44.870;37.336;2023-04-24T21:19:11;11.27;87.69
76104;HTU21D;64831;44.870;37.336;2023-04-24T21:21:37;11.30;87.71
76104;HTU21D;64831;44.870;37.336;2023-04-24T21:24:03;11.31;87.89
76104;HTU21D;64831;44.870;37.336;2023-04-24T21:26:29;11.31;87.89
76104;HTU21D;64831;44.870;37.336;2023-04-24T21:28:55;11.34;88.04
76104;HTU21D;64831;44.870;37.336;2023-04-24T21:31:21;11.34;88.21
76104;HTU21D;64831;44.870;37.336;2023-04-24T21:33:47;11.34;88.38
76104;HTU21D;64831;44.870;37.336;2023-04-24T21:36:13;11.37;88.24
76104;HTU21D;64831;44.870;37.336;2023-04-24T21:38:39;11.37;88.26
76104;HTU21D;64831;44.870;37.336;2023-04-24T21:41:05;11.39;88.38
76104;HTU21D;64831;44.870;37.336;2023-04-24T21:43:31;11.40;88.46
76104;HTU21D;64831;44.870;37.336;2023-04-24T21:45:57;11.41;88.65
76104;HTU21D;64831;44.870;37.336;2023-04-24T21:48:23;11.42;88.68
76104;HTU21D;64831;44.870;37.336;2023-04-24T21:50:49;11.44;88.77
76104;HTU21D;64831;44.870;37.336;2023-04-24T21:53:15;11.44;88.67
76104;HTU21D;64831;44.870;37.336;2023-04-24T21:55:41;11.46;88.78
76104;HTU21D;64831;44.870;37.336;2023-04-24T21:58:07;11.47;88.73
76104;HTU21D;64831;44.870;37.336;2023-04-24T22:00:33;11.52;88.78
76104;HTU21D;64831;44.870;37.336;2023-04-24T22:02:59;11.54;88.74
76104;HTU21D;64831;44.870;37.336;2023-04-24T22:05:25;11.56;88.86
76104;HTU21D;64831;44.870;37.336;2023-04-24T22:07:51;11.56;88.95
76104;HTU21D;64831;44.870;37.336;2023-04-24T22:10:18;11.54;88.81
76104;HTU21D;64831;44.870;37.336;2023-04-24T22:12:44;11.53;88.64
76104;HTU21D;64831;44.870;37.336;2023-04-24T22:15:10;11.55;88.46
76104;HTU21D;64831;44.870;37.336;2023-04-24T22:17:36;11.55;88.35
76104;HTU21D;64831;44.870;37.336;2023-04-24T22:20:03;11.56;88.25
76104;HTU21D;64831;44.870;37.336;2023-04-24T22:22:32;11.55;88.25
76104;HTU21D;64831;44.870;37.336;2023-04-24T22:24:58;11.57;88.18
76104;HTU21D;64831;44.870;37.336;2023-04-24T22:27:24;11.56;88.11
76104;HTU21D;64831;44.870;37.336;2023-04-24T22:29:50;11.55;87.98
76104;HTU21D;64831;44.870;37.336;2023-04-24T22:32:16;11.54;87.83
76104;HTU21D;64831;44.870;37.336;2023-04-24T22:34:42;11.53;87.66
76104;HTU21D;64831;44.870;37.336;2023-04-24T22:37:09;11.48;87.42
76104;HTU21D;64831;44.870;37.336;2023-04-24T22:39:35;11.49;87.12
76104;HTU21D;64831;44.870;37.336;2023-04-24T22:42:01;11.48;86.83
76104;HTU21D;64831;44.870;37.336;2023-04-24T22:44:27;11.43;86.58
76104;HTU21D;64831;44.870;37.336;2023-04-24T22:46:53;11.40;86.51
76104;HTU21D;64831;44.870;37.336;2023-04-24T22:49:19;11.38;86.30
76104;HTU21D;64831;44.870;37.336;2023-04-24T22:51:46;11.31;86.22
76104;HTU21D;64831;44.870;37.336;2023-04-24T22:54:12;11.28;85.99
76104;HTU21D;64831;44.870;37.336;2023-04-24T22:56:38;11.23;85.84
76104;HTU21D;64831;44.870;37.336;2023-04-24T22:59:04;11.20;85.62
76104;HTU21D;64831;44.870;37.336;2023-04-24T23:01:31;11.20;85.74
76104;HTU21D;64831;44.870;37.336;2023-04-24T23:03:57;11.18;85.74
76104;HTU21D;64831;44.870;37.336;2023-04-24T23:06:23;11.14;85.94
76104;HTU21D;64831;44.870;37.336;2023-04-24T23:08:49;11.15;86.12
76104;HTU21D;64831;44.870;37.336;2023-04-24T23:11:15;11.15;86.15
76104;HTU21D;64831;44.870;37.336;2023-04-24T23:13:41;11.16;86.11
76104;HTU21D;64831;44.870;37.336;2023-04-24T23:16:09;11.17;85.94
76104;HTU21D;64831;44.870;37.336;2023-04-24T23:18:35;11.19;85.87
76104;HTU21D;64831;44.870;37.336;2023-04-24T23:21:01;11.17;85.89
76104;HTU21D;64831;44.870;37.336;2023-04-24T23:23:28;11.17;85.82
76104;HTU21D;64831;44.870;37.336;2023-04-24T23:25:54;11.16;85.87
76104;HTU21D;64831;44.870;37.336;2023-04-24T23:28:20;11.17;86.07
76104;HTU21D;64831;44.870;37.336;2023-04-24T23:30:46;11.16;86.03
76104;HTU21D;64831;44.870;37.336;2023-04-24T23:33:11;11.17;85.96
76104;HTU21D;64831;44.870;37.336;2023-04-24T23:35:38;11.19;85.96
76104;HTU21D;64831;44.870;37.336;2023-04-24T23:38:05;11.19;85.96
76104;HTU21D;64831;44.870;37.336;2023-04-24T23:40:31;11.19;85.93
76104;HTU21D;64831;44.870;37.336;2023-04-24T23:42:57;11.20;85.92
76104;HTU21D;64831;44.870;37.336;2023-04-24T23:45:23;11.23;85.90
76104;HTU21D;64831;44.870;37.336;2023-04-24T23:47:48;11.26;85.85
76104;HTU21D;64831;44.870;37.336;2023-04-24T23:50:15;11.24;86.04
76104;HTU21D;64831;44.870;37.336;2023-04-24T23:52:41;11.25;86.10
76104;HTU21D;64831;44.870;37.336;2023-04-24T23:55:11;11.22;86.10
76104;HTU21D;64831;44.870;37.336;2023-04-24T23:57:37;11.23;86.03
